createdAt,value
2022-12-27T00:01:52.045Z,99559.25
2022-12-27T00:04:18.767Z,99560.47
2022-12-27T00:06:45.511Z,99558.47
2022-12-27T00:09:12.336Z,99555.38
2022-12-27T00:11:39.202Z,99566.19
2022-12-27T00:14:07.234Z,99574.63
2022-12-27T00:16:34.735Z,99570.44
2022-12-27T00:19:02.841Z,99573.81
2022-12-27T00:21:29.498Z,99583.78
2022-12-27T00:23:57.863Z,99574.28
2022-12-27T00:26:28.260Z,99581.78
2022-12-27T00:28:55.585Z,99575.81
2022-12-27T00:31:23.385Z,99584.66
2022-12-27T00:33:51.797Z,99585.19
2022-12-27T00:36:21.040Z,99577.72
2022-12-27T00:38:48.294Z,99580.75
2022-12-27T00:41:15.710Z,99579.41
2022-12-27T00:43:42.794Z,99573.03
2022-12-27T00:46:09.736Z,99587.31
2022-12-27T00:48:37.049Z,99584.72
2022-12-27T00:51:07.852Z,99584.31
2022-12-27T00:53:35.436Z,99586.13
2022-12-27T00:56:07.281Z,99579.31
2022-12-27T00:58:38.388Z,99593.22
2022-12-27T01:01:12.949Z,99595.22
2022-12-27T01:03:40.083Z,99606.13
2022-12-27T01:06:09.159Z,99610.97
2022-12-27T01:08:36.287Z,99612.47
2022-12-27T01:11:03.756Z,99597.94
2022-12-27T01:13:31.096Z,99598.81
2022-12-27T01:15:58.061Z,99600.59
2022-12-27T01:18:25.116Z,99617.78
2022-12-27T01:20:51.985Z,99629.16
2022-12-27T01:23:18.953Z,99624.19
2022-12-27T01:25:46.822Z,99620.38
2022-12-27T01:28:13.628Z,99620.69
2022-12-27T01:30:40.328Z,99624.72
2022-12-27T01:33:07.318Z,99626.47
2022-12-27T01:35:34.165Z,99626.47
2022-12-27T01:38:00.853Z,99630.22
2022-12-27T01:40:27.681Z,99639.94
2022-12-27T01:42:55.815Z,99636.34
2022-12-27T01:45:27.559Z,99641.13
2022-12-27T01:48:05.892Z,99645.66
2022-12-27T01:50:35.917Z,99645.00
2022-12-27T01:53:20.745Z,99642.06
2022-12-27T01:56:00.158Z,99650.00
2022-12-27T01:58:43.969Z,99653.00
2022-12-27T02:01:18.361Z,99651.19
2022-12-27T02:03:52.723Z,99659.44
2022-12-27T02:06:21.590Z,99665.56
2022-12-27T02:09:18.536Z,99669.69
2022-12-27T02:11:55.408Z,99676.63
2022-12-27T02:14:49.400Z,99663.97
2022-12-27T02:17:21.601Z,99663.25
2022-12-27T02:20:12.195Z,99665.91
2022-12-27T02:23:27.533Z,99670.94
2022-12-27T02:26:06.251Z,99680.50
2022-12-27T02:28:50.914Z,99681.34
2022-12-27T02:31:22.694Z,99680.94
2022-12-27T02:33:52.289Z,99682.16
2022-12-27T02:36:24.828Z,99687.34
2022-12-27T02:38:54.340Z,99685.53
2022-12-27T02:41:39.964Z,99688.38
2022-12-27T02:44:25.197Z,99682.00
2022-12-27T02:47:11.095Z,99690.88
2022-12-27T02:49:59.516Z,99686.34
2022-12-27T02:53:13.409Z,99692.47
2022-12-27T02:56:18.545Z,99691.66
2022-12-27T02:59:07.898Z,99699.59
2022-12-27T03:02:12.176Z,99687.69
2022-12-27T03:04:45.037Z,99682.47
2022-12-27T03:07:22.142Z,99686.00
2022-12-27T03:10:30.147Z,99689.13
2022-12-27T03:13:53.981Z,99692.38
2022-12-27T03:16:33.612Z,99693.78
2022-12-27T03:19:13.972Z,99694.13
2022-12-27T03:22:03.152Z,99712.97
2022-12-27T03:24:53.004Z,99708.69
2022-12-27T03:28:09.487Z,99705.44
2022-12-27T03:30:58.995Z,99710.09
2022-12-27T03:33:27.455Z,99723.53
2022-12-27T03:36:22.050Z,99718.13
2022-12-27T03:38:56.258Z,99716.28
2022-12-27T03:41:53.145Z,99729.19
2022-12-27T03:44:25.960Z,99729.81
2022-12-27T03:46:58.846Z,99727.72
2022-12-27T03:49:46.544Z,99731.66
2022-12-27T03:52:24.114Z,99726.69
2022-12-27T03:54:51.432Z,99728.28
2022-12-27T03:57:20.334Z,99722.19
2022-12-27T03:59:47.375Z,99722.47
2022-12-27T04:02:14.517Z,99730.59
2022-12-27T04:04:41.920Z,99716.75
2022-12-27T04:07:08.617Z,99719.53
2022-12-27T04:09:53.861Z,99716.69
2022-12-27T04:12:39.299Z,99718.22
2022-12-27T04:15:25.344Z,99718.06
2022-12-27T04:18:10.917Z,99722.47
2022-12-27T04:20:56.646Z,99730.34
2022-12-27T04:23:42.653Z,99729.28
2022-12-27T04:26:28.308Z,99728.78
2022-12-27T04:29:13.686Z,99721.41
2022-12-27T04:31:59.259Z,99731.78
2022-12-27T04:34:44.318Z,99723.84
2022-12-27T04:37:18.084Z,99722.66
2022-12-27T04:40:09.247Z,99718.41
2022-12-27T04:42:54.825Z,99724.25
2022-12-27T04:45:39.994Z,99720.75
2022-12-27T04:48:30.368Z,99720.06
2022-12-27T04:51:16.670Z,99713.31
2022-12-27T04:54:02.601Z,99709.25
2022-12-27T04:56:29.389Z,99726.53
2022-12-27T04:59:14.723Z,99713.34
2022-12-27T05:02:00.490Z,99718.13
2022-12-27T05:04:27.296Z,99723.41
2022-12-27T05:06:54.216Z,99727.88
2022-12-27T05:09:39.717Z,99736.34
2022-12-27T05:12:25.167Z,99736.75
2022-12-27T05:14:52.252Z,99743.03
2022-12-27T05:17:19.279Z,99744.28
2022-12-27T05:19:45.907Z,99738.84
2022-12-27T05:22:31.658Z,99742.19
2022-12-27T05:25:17.043Z,99749.75
2022-12-27T05:27:44.871Z,99752.66
2022-12-27T05:30:12.190Z,99755.94
2022-12-27T05:32:38.809Z,99749.41
2022-12-27T05:35:06.079Z,99742.47
2022-12-27T05:37:33.779Z,99744.06
2022-12-27T05:40:00.883Z,99743.88
2022-12-27T05:42:27.759Z,99754.44
2022-12-27T05:44:54.583Z,99751.06
2022-12-27T05:47:21.264Z,99755.78
2022-12-27T05:49:48.426Z,99756.78
2022-12-27T05:52:15.429Z,99758.47
2022-12-27T05:54:42.180Z,99762.84
2022-12-27T05:57:08.895Z,99761.91
2022-12-27T05:59:35.733Z,99761.16
2022-12-27T06:02:02.649Z,99770.97
2022-12-27T06:04:29.775Z,99766.38
2022-12-27T06:06:56.430Z,99757.78
2022-12-27T06:09:23.325Z,99744.22
2022-12-27T06:11:50.123Z,99752.69
2022-12-27T06:14:17.255Z,99766.50
2022-12-27T06:16:44.065Z,99775.56
2022-12-27T06:19:10.867Z,99775.50
2022-12-27T06:21:37.505Z,99764.34
2022-12-27T06:24:04.780Z,99779.94
2022-12-27T06:26:31.685Z,99782.78
2022-12-27T06:28:58.859Z,99779.34
2022-12-27T06:31:26.861Z,99783.97
2022-12-27T06:33:54.123Z,99786.63
2022-12-27T06:36:23.953Z,99780.19
2022-12-27T06:38:51.370Z,99787.88
2022-12-27T06:41:19.214Z,99788.50
2022-12-27T06:43:46.843Z,99781.38
2022-12-27T06:46:17.739Z,99784.63
2022-12-27T06:48:46.164Z,99790.84
2022-12-27T06:51:14.122Z,99791.91
2022-12-27T06:53:40.914Z,99798.88
2022-12-27T06:56:13.805Z,99800.66
2022-12-27T06:58:40.635Z,99800.00
2022-12-27T07:01:15.457Z,99797.38
2022-12-27T07:03:42.622Z,99808.19
2022-12-27T07:06:11.856Z,99808.38
2022-12-27T07:08:38.720Z,99802.72
2022-12-27T07:11:08.235Z,99805.66
2022-12-27T07:13:37.007Z,99806.59
2022-12-27T07:16:05.826Z,99800.53
2022-12-27T07:18:33.123Z,99793.34
2022-12-27T07:21:00.156Z,99789.16
2022-12-27T07:23:26.867Z,99788.97
2022-12-27T07:25:53.558Z,99797.88
2022-12-27T07:28:20.650Z,99787.00
2022-12-27T07:30:47.423Z,99798.22
2022-12-27T07:33:14.640Z,99795.03
2022-12-27T07:35:45.028Z,99807.28
2022-12-27T07:38:12.312Z,99803.59
2022-12-27T07:40:39.106Z,99819.69
2022-12-27T07:43:05.782Z,99817.50
2022-12-27T07:45:33.010Z,99833.09
2022-12-27T07:47:59.646Z,99836.78
2022-12-27T07:50:26.360Z,99821.84
2022-12-27T07:52:53.149Z,99827.06
2022-12-27T07:55:19.731Z,99836.28
2022-12-27T07:57:46.459Z,99831.50
2022-12-27T08:00:13.727Z,99836.38
2022-12-27T08:02:40.371Z,99835.09
2022-12-27T08:05:07.536Z,99837.38
2022-12-27T08:07:34.553Z,99830.25
2022-12-27T08:10:01.613Z,99834.78
2022-12-27T08:12:29.233Z,99849.03
2022-12-27T08:14:55.950Z,99849.34
2022-12-27T08:17:25.439Z,99850.22
2022-12-27T08:19:52.616Z,99850.94
2022-12-27T08:22:20.817Z,99860.34
2022-12-27T08:24:47.622Z,99852.47
2022-12-27T08:27:21.132Z,99855.66
2022-12-27T08:29:48.432Z,99856.16
2022-12-27T08:32:15.171Z,99860.69
2022-12-27T08:34:43.508Z,99860.13
2022-12-27T08:37:11.252Z,99867.50
2022-12-27T08:39:40.987Z,99874.38
2022-12-27T08:42:12.986Z,99871.84
2022-12-27T08:44:45.198Z,99878.56
2022-12-27T08:47:13.167Z,99881.69
2022-12-27T08:49:47.163Z,99883.78
2022-12-27T08:52:16.990Z,99885.75
2022-12-27T08:54:45.204Z,99892.09
2022-12-27T08:57:13.572Z,99886.38
2022-12-27T08:59:41.552Z,99900.22
2022-12-27T09:02:15.207Z,99900.88
2022-12-27T09:04:42.013Z,99903.91
2022-12-27T09:07:10.264Z,99906.53
2022-12-27T09:09:37.711Z,99907.59
2022-12-27T09:12:09.255Z,99911.88
2022-12-27T09:14:37.868Z,99907.03
2022-12-27T09:17:07.415Z,99915.59
2022-12-27T09:19:34.261Z,99918.97
2022-12-27T09:22:01.049Z,99918.59
2022-12-27T09:24:31.815Z,99922.53
2022-12-27T09:27:00.390Z,99912.63
2022-12-27T09:29:27.263Z,99922.84
2022-12-27T09:31:54.794Z,99916.91
2022-12-27T09:34:21.525Z,99916.19
2022-12-27T09:36:48.981Z,99925.34
2022-12-27T09:39:17.426Z,99924.56
2022-12-27T09:42:45.878Z,99928.97
2022-12-27T09:44:53.456Z,99932.13
2022-12-27T09:47:47.866Z,99931.19
2022-12-27T09:50:28.552Z,99930.63
2022-12-27T09:53:26.705Z,99927.81
2022-12-27T09:55:54.769Z,99933.09
2022-12-27T09:58:50.646Z,99939.97
2022-12-27T10:01:37.693Z,99929.97
2022-12-27T10:04:06.279Z,99928.69
2022-12-27T10:06:48.732Z,99935.31
2022-12-27T10:10:11.106Z,99922.44
2022-12-27T10:12:56.989Z,99927.50
2022-12-27T10:15:32.639Z,99924.69
2022-12-27T10:18:42.755Z,99933.34
2022-12-27T10:21:22.075Z,99933.47
2022-12-27T10:23:57.978Z,99940.28
2022-12-27T10:26:24.929Z,99932.16
2022-12-27T10:29:25.445Z,99930.00
2022-12-27T10:31:52.470Z,99928.72
2022-12-27T10:34:24.840Z,99928.63
2022-12-27T10:36:52.965Z,99926.78
2022-12-27T10:39:30.670Z,99924.25
2022-12-27T10:42:24.719Z,99930.28
2022-12-27T10:44:51.444Z,99928.81
2022-12-27T10:47:18.215Z,99931.22
2022-12-27T10:50:02.434Z,99931.63
2022-12-27T10:52:32.725Z,99922.66
2022-12-27T10:54:59.593Z,99927.13
2022-12-27T10:57:34.235Z,99927.88
2022-12-27T11:00:22.835Z,99923.22
2022-12-27T11:02:54.931Z,99914.38
2022-12-27T11:05:28.400Z,99924.06
2022-12-27T11:07:55.254Z,99931.34
2022-12-27T11:10:24.467Z,99927.53
2022-12-27T11:13:05.782Z,99927.16
2022-12-27T11:15:37.199Z,99931.59
2022-12-27T11:18:10.712Z,99938.41
2022-12-27T11:20:53.828Z,99936.19
2022-12-27T11:23:22.845Z,99931.63
2022-12-27T11:25:54.960Z,99935.34
2022-12-27T11:28:38.533Z,99934.88
2022-12-27T11:31:10.944Z,99929.97
2022-12-27T11:33:41.474Z,99931.94
2022-12-27T11:36:12.531Z,99934.56
2022-12-27T11:38:42.717Z,99927.44
2022-12-27T11:41:13.744Z,99932.50
2022-12-27T11:43:53.611Z,99931.31
2022-12-27T11:46:40.701Z,99930.34
2022-12-27T11:49:14.484Z,99932.50
2022-12-27T11:52:19.179Z,99931.19
2022-12-27T11:55:36.830Z,99926.56
2022-12-27T11:58:33.851Z,99923.56
2022-12-27T12:01:50.273Z,99919.91
2022-12-27T12:04:37.196Z,99922.31
2022-12-27T12:07:31.872Z,99929.34
2022-12-27T12:10:10.762Z,99925.78
2022-12-27T12:13:14.871Z,99918.19
2022-12-27T12:16:06.313Z,99921.09
2022-12-27T12:18:45.534Z,99914.22
2022-12-27T12:21:23.158Z,99923.06
2022-12-27T12:24:15.076Z,99924.75
2022-12-27T12:27:09.477Z,99916.84
2022-12-27T12:29:47.155Z,99921.88
2022-12-27T12:32:30.530Z,99917.88
2022-12-27T12:35:16.297Z,99915.91
2022-12-27T12:38:16.721Z,99914.22
2022-12-27T12:41:15.752Z,99910.50
2022-12-27T12:44:17.129Z,99906.00
2022-12-27T12:47:05.297Z,99913.03
2022-12-27T12:50:11.344Z,99908.22
2022-12-27T12:53:13.387Z,99907.09
2022-12-27T12:56:05.608Z,99898.88
2022-12-27T12:59:13.916Z,99898.59
2022-12-27T13:01:52.940Z,99908.09
2022-12-27T13:05:03.598Z,99909.69
2022-12-27T13:07:52.838Z,99903.91
2022-12-27T13:11:18.216Z,99907.06
2022-12-27T13:14:09.334Z,99905.19
2022-12-27T13:16:59.285Z,99902.50
2022-12-27T13:19:44.870Z,99896.03
2022-12-27T13:22:38.127Z,99905.88
2022-12-27T13:25:46.039Z,99912.59
2022-12-27T13:29:05.340Z,99900.66
2022-12-27T13:32:05.865Z,99911.75
2022-12-27T13:35:28.339Z,99911.66
2022-12-27T13:38:29.445Z,99910.91
2022-12-27T13:41:30.220Z,99910.28
2022-12-27T13:44:22.719Z,99901.19
2022-12-27T13:47:27.392Z,99899.34
2022-12-27T13:50:26.309Z,99899.84
2022-12-27T13:53:14.092Z,99901.16
2022-12-27T13:56:14.879Z,99904.38
2022-12-27T13:58:59.780Z,99904.22
2022-12-27T14:01:56.552Z,99898.03
2022-12-27T14:05:01.701Z,99900.75
2022-12-27T14:08:12.336Z,99902.88
2022-12-27T14:10:51.704Z,99882.63
2022-12-27T14:13:32.684Z,99887.59
2022-12-27T14:16:34.635Z,99886.50
2022-12-27T14:19:19.226Z,99891.09
2022-12-27T14:22:12.177Z,99894.97
2022-12-27T14:29:17.183Z,99899.97
2022-12-27T14:32:32.843Z,99902.66
2022-12-27T14:35:32.087Z,99897.22
2022-12-27T14:38:49.323Z,99897.13
2022-12-27T14:42:11.952Z,99887.88
2022-12-27T14:44:57.428Z,99888.38
2022-12-27T14:47:54.869Z,99877.75
2022-12-27T14:51:32.709Z,99885.88
2022-12-27T14:54:22.933Z,99882.09
2022-12-27T14:57:33.543Z,99886.63
2022-12-27T15:00:24.174Z,99886.47
2022-12-27T15:03:20.018Z,99888.34
2022-12-27T15:05:56.859Z,99889.25
2022-12-27T15:08:43.120Z,99900.72
2022-12-27T15:11:43.920Z,99897.22
2022-12-27T15:14:24.835Z,99889.69
2022-12-27T15:17:17.468Z,99889.38
2022-12-27T15:20:09.532Z,99888.09
2022-12-27T15:23:01.564Z,99887.63
2022-12-27T15:25:42.891Z,99893.03
2022-12-27T15:28:58.395Z,99888.19
2022-12-27T15:31:41.141Z,99886.94
2022-12-27T15:37:51.459Z,99889.13
2022-12-27T15:43:58.159Z,99887.53
2022-12-27T15:47:10.298Z,99887.38
2022-12-27T15:50:31.597Z,99889.50
2022-12-27T15:53:10.967Z,99878.72
2022-12-27T15:56:20.014Z,99876.84
2022-12-27T15:59:25.022Z,99877.22
2022-12-27T16:02:29.679Z,99867.06
2022-12-27T16:05:02.324Z,99887.56
2022-12-27T16:08:00.951Z,99881.31
2022-12-27T16:10:31.206Z,99883.53
2022-12-27T16:13:12.639Z,99876.25
2022-12-27T16:15:53.242Z,99886.44
2022-12-27T16:18:49.231Z,99884.75
2022-12-27T16:21:24.016Z,99892.66
2022-12-27T16:24:02.188Z,99886.41
2022-12-27T16:26:30.387Z,99891.97
2022-12-27T16:29:06.444Z,99895.72
2022-12-27T16:31:37.928Z,99889.28
2022-12-27T16:34:13.348Z,99878.59
2022-12-27T16:36:47.789Z,99883.22
2022-12-27T16:39:56.456Z,99884.44
2022-12-27T16:43:05.829Z,99880.72
2022-12-27T16:45:48.571Z,99883.59
2022-12-27T16:48:44.274Z,99885.19
2022-12-27T16:51:45.240Z,99891.50
2022-12-27T16:54:18.459Z,99886.78
2022-12-27T16:56:48.413Z,99883.03
2022-12-27T16:59:52.196Z,99893.53
2022-12-27T17:02:47.316Z,99888.16
2022-12-27T17:05:33.734Z,99874.47
2022-12-27T17:08:13.981Z,99881.28
2022-12-27T17:10:56.845Z,99897.16
2022-12-27T17:13:32.624Z,99895.72
2022-12-27T17:16:24.442Z,99890.53
2022-12-27T17:18:55.540Z,99893.72
2022-12-27T17:21:48.036Z,99887.84
2022-12-27T17:24:19.618Z,99881.34
2022-12-27T17:27:06.699Z,99885.16
2022-12-27T17:29:51.962Z,99884.13
2022-12-27T17:32:44.469Z,99873.63
2022-12-27T17:35:35.184Z,99872.03
2022-12-27T17:38:37.236Z,99883.31
2022-12-27T17:42:08.365Z,99877.00
2022-12-27T17:44:52.378Z,99874.03
2022-12-27T17:47:46.109Z,99870.38
2022-12-27T17:50:20.221Z,99867.00
2022-12-27T17:53:22.389Z,99875.88
2022-12-27T17:56:29.572Z,99870.03
2022-12-27T17:59:26.465Z,99868.66
2022-12-27T18:01:57.704Z,99870.94
2022-12-27T18:04:26.911Z,99865.88
2022-12-27T18:06:58.151Z,99859.94
2022-12-27T18:09:55.553Z,99865.63
2022-12-27T18:12:31.200Z,99862.09
2022-12-27T18:15:01.125Z,99860.06
2022-12-27T18:17:44.532Z,99851.34
2022-12-27T18:20:41.004Z,99847.25
2022-12-27T18:23:15.619Z,99849.38
2022-12-27T18:26:07.954Z,99852.06
2022-12-27T18:28:40.192Z,99857.09
2022-12-27T18:31:33.794Z,99856.91
2022-12-27T18:34:32.924Z,99860.78
2022-12-27T18:37:21.696Z,99857.91
2022-12-27T18:39:56.988Z,99859.44
2022-12-27T18:42:35.769Z,99859.88
2022-12-27T18:45:07.603Z,99859.50
2022-12-27T18:47:40.151Z,99850.44
2022-12-27T18:50:17.048Z,99851.03
2022-12-27T18:52:46.288Z,99853.13
2022-12-27T18:55:21.189Z,99849.00
2022-12-27T18:57:48.480Z,99844.56
2022-12-27T19:00:26.736Z,99848.13
2022-12-27T19:02:55.088Z,99851.28
2022-12-27T19:05:25.693Z,99853.19
2022-12-27T19:08:02.892Z,99858.25
2022-12-27T19:10:30.979Z,99853.47
2022-12-27T19:12:57.728Z,99853.13
2022-12-27T19:15:36.621Z,99844.44
2022-12-27T19:18:16.361Z,99850.88
2022-12-27T19:20:43.107Z,99851.69
2022-12-27T19:23:35.159Z,99853.19
2022-12-27T19:26:36.255Z,99844.66
2022-12-27T19:29:08.456Z,99848.50
2022-12-27T19:31:36.195Z,99841.41
2022-12-27T19:34:07.456Z,99845.53
2022-12-27T19:36:38.346Z,99838.59
2022-12-27T19:39:18.792Z,99834.31
2022-12-27T19:41:46.383Z,99837.06
2022-12-27T19:44:13.071Z,99833.94
2022-12-27T19:46:39.863Z,99826.94
2022-12-27T19:51:55.370Z,99817.50
2022-12-27T19:54:23.167Z,99812.72
2022-12-27T19:56:49.933Z,99811.84
2022-12-27T19:59:22.185Z,99806.66
2022-12-27T20:01:49.075Z,99807.66
2022-12-27T20:04:16.875Z,99797.91
2022-12-27T20:06:48.576Z,99802.47
2022-12-27T20:09:19.853Z,99805.22
2022-12-27T20:11:47.005Z,99810.16
2022-12-27T20:14:14.984Z,99806.81
2022-12-27T20:16:42.161Z,99803.28
2022-12-27T20:19:11.538Z,99793.13
2022-12-27T20:21:39.503Z,99792.34
2022-12-27T20:24:06.561Z,99794.53
2022-12-27T20:26:33.239Z,99787.03
2022-12-27T20:29:00.378Z,99793.19
2022-12-27T20:31:27.263Z,99788.59
2022-12-27T20:33:55.681Z,99798.06
2022-12-27T20:36:24.231Z,99793.78
2022-12-27T20:38:50.990Z,99791.66
2022-12-27T20:41:20.156Z,99792.94
2022-12-27T20:43:46.840Z,99781.50
2022-12-27T20:46:16.232Z,99782.63
2022-12-27T20:48:44.623Z,99789.72
2022-12-27T20:51:17.510Z,99783.38
2022-12-27T20:53:44.618Z,99780.22
2022-12-27T20:56:13.096Z,99770.34
2022-12-27T20:58:39.886Z,99779.19
2022-12-27T21:01:11.378Z,99770.34
2022-12-27T21:03:38.151Z,99755.63
2022-12-27T21:06:16.189Z,99757.50
2022-12-27T21:08:48.995Z,99751.00
2022-12-27T21:11:30.497Z,99746.81
2022-12-27T21:13:57.187Z,99747.81
2022-12-27T21:16:25.781Z,99743.34
2022-12-27T21:18:52.711Z,99748.38
2022-12-27T21:21:22.029Z,99748.56
2022-12-27T21:23:50.444Z,99742.81
2022-12-27T21:26:19.858Z,99738.53
2022-12-27T21:28:46.743Z,99738.97
2022-12-27T21:31:14.651Z,99740.00
2022-12-27T21:33:41.564Z,99734.97
2022-12-27T21:36:11.864Z,99729.78
2022-12-27T21:38:38.521Z,99722.22
2022-12-27T21:41:11.905Z,99720.38
2022-12-27T21:43:38.654Z,99711.63
2022-12-27T21:46:26.895Z,99699.69
2022-12-27T21:48:56.109Z,99690.03
2022-12-27T21:51:22.746Z,99703.63
2022-12-27T21:53:50.112Z,99703.97
2022-12-27T21:56:17.696Z,99696.81
2022-12-27T21:58:45.067Z,99700.72
2022-12-27T22:01:14.541Z,99694.06
2022-12-27T22:03:43.843Z,99701.03
2022-12-27T22:06:23.783Z,99699.41
2022-12-27T22:08:52.713Z,99703.63
2022-12-27T22:11:21.832Z,99702.78
2022-12-27T22:13:48.885Z,99698.22
2022-12-27T22:16:32.850Z,99697.09
2022-12-27T22:18:59.753Z,99693.28
2022-12-27T22:21:33.014Z,99691.72
2022-12-27T22:24:01.237Z,99689.38
2022-12-27T22:26:34.588Z,99682.31
2022-12-27T22:29:02.027Z,99681.75
2022-12-27T22:31:30.914Z,99685.56
2022-12-27T22:33:57.721Z,99679.78
2022-12-27T22:36:25.837Z,99678.97
2022-12-27T22:38:55.247Z,99682.38
2022-12-27T22:41:33.293Z,99682.03
2022-12-27T22:44:04.121Z,99676.34
2022-12-27T22:46:51.065Z,99674.28
2022-12-27T22:49:17.750Z,99669.25
2022-12-27T22:51:44.588Z,99663.41
2022-12-27T22:54:11.440Z,99666.47
2022-12-27T22:56:39.868Z,99667.03
2022-12-27T22:59:14.432Z,99662.13
2022-12-27T23:01:41.718Z,99659.22
2022-12-27T23:04:11.082Z,99653.53
2022-12-27T23:06:39.049Z,99655.88
2022-12-27T23:09:06.224Z,99655.56
2022-12-27T23:11:35.865Z,99658.56
2022-12-27T23:14:11.150Z,99651.97
2022-12-27T23:16:48.448Z,99644.88
2022-12-27T23:19:17.354Z,99648.41
2022-12-27T23:21:44.306Z,99639.31
2022-12-27T23:24:11.476Z,99637.84
2022-12-27T23:26:38.979Z,99637.66
2022-12-27T23:29:06.049Z,99641.19
2022-12-27T23:31:33.362Z,99644.25
2022-12-27T23:34:00.243Z,99634.38
2022-12-27T23:36:26.895Z,99630.75
2022-12-27T23:38:53.611Z,99622.66
2022-12-27T23:41:22.534Z,99610.66
2022-12-27T23:43:53.312Z,99619.97
2022-12-27T23:46:25.945Z,99629.81
2022-12-27T23:48:52.884Z,99615.78
2022-12-27T23:51:19.830Z,99611.34
2022-12-27T23:53:46.795Z,99614.50
2022-12-27T23:56:17.133Z,99613.50
2022-12-27T23:58:44.430Z,99603.63
